sensor_id;sensor_type;location;lat;lon;timestamp;temperature;humidity
66728;DHT22;53641;44.274;19.890;2022-10-30T00:00:40;12.00;99.90
66728;DHT22;53641;44.274;19.890;2022-10-30T00:03:09;12.00;99.90
66728;DHT22;53641;44.274;19.890;2022-10-30T00:05:35;11.90;99.90
66728;DHT22;53641;44.274;19.890;2022-10-30T00:08:04;11.90;99.90
66728;DHT22;53641;44.274;19.890;2022-10-30T00:10:29;11.80;99.90
66728;DHT22;53641;44.274;19.890;2022-10-30T00:12:55;11.90;99.90
66728;DHT22;53641;44.274;19.890;2022-10-30T00:15:22;11.80;99.90
66728;DHT22;53641;44.274;19.890;2022-10-30T00:17:48;11.80;99.90
66728;DHT22;53641;44.274;19.890;2022-10-30T00:20:14;11.70;99.90
66728;DHT22;53641;44.274;19.890;2022-10-30T00:22:39;11.80;99.90
66728;DHT22;53641;44.274;19.890;2022-10-30T00:25:05;11.80;99.90
66728;DHT22;53641;44.274;19.890;2022-10-30T00:27:34;11.80;99.90
66728;DHT22;53641;44.274;19.890;2022-10-30T00:30:04;11.80;99.90
66728;DHT22;53641;44.274;19.890;2022-10-30T00:32:32;11.70;99.90
66728;DHT22;53641;44.274;19.890;2022-10-30T00:34:58;11.60;99.90
66728;DHT22;53641;44.274;19.890;2022-10-30T00:37:24;11.70;99.90
66728;DHT22;53641;44.274;19.890;2022-10-30T00:39:50;11.60;99.90
66728;DHT22;53641;44.274;19.890;2022-10-30T00:42:15;11.60;99.90
66728;DHT22;53641;44.274;19.890;2022-10-30T00:44:51;11.60;99.90
66728;DHT22;53641;44.274;19.890;2022-10-30T00:47:33;11.60;99.90
66728;DHT22;53641;44.274;19.890;2022-10-30T00:50:22;11.60;99.90
66728;DHT22;53641;44.274;19.890;2022-10-30T00:53:06;11.60;99.90
66728;DHT22;53641;44.274;19.890;2022-10-30T00:55:36;11.60;99.90
66728;DHT22;53641;44.274;19.890;2022-10-30T00:58:06;11.60;99.90
66728;DHT22;53641;44.274;19.890;2022-10-30T01:00:34;11.60;99.90
66728;DHT22;53641;44.274;19.890;2022-10-30T01:03:01;11.60;99.90
66728;DHT22;53641;44.274;19.890;2022-10-30T01:05:30;11.50;99.90
66728;DHT22;53641;44.274;19.890;2022-10-30T01:07:57;11.50;99.90
66728;DHT22;53641;44.274;19.890;2022-10-30T01:10:26;11.50;99.90
66728;DHT22;53641;44.274;19.890;2022-10-30T01:12:52;11.50;99.90
66728;DHT22;53641;44.274;19.890;2022-10-30T01:15:26;11.50;99.90
66728;DHT22;53641;44.274;19.890;2022-10-30T01:18:04;11.50;99.90
66728;DHT22;53641;44.274;19.890;2022-10-30T01:21:08;11.50;99.90
66728;DHT22;53641;44.274;19.890;2022-10-30T01:23:55;11.50;99.90
66728;DHT22;53641;44.274;19.890;2022-10-30T01:26:36;11.50;99.90
66728;DHT22;53641;44.274;19.890;2022-10-30T01:29:25;11.50;99.90
66728;DHT22;53641;44.274;19.890;2022-10-30T01:33:40;11.50;99.90
66728;DHT22;53641;44.274;19.890;2022-10-30T01:35:12;11.50;99.90
66728;DHT22;53641;44.274;19.890;2022-10-30T01:37:47;11.50;99.90
66728;DHT22;53641;44.274;19.890;2022-10-30T01:40:19;11.40;99.90
66728;DHT22;53641;44.274;19.890;2022-10-30T01:42:53;11.40;99.90
66728;DHT22;53641;44.274;19.890;2022-10-30T01:45:25;11.30;99.90
66728;DHT22;53641;44.274;19.890;2022-10-30T01:49:25;11.30;99.90
66728;DHT22;53641;44.274;19.890;2022-10-30T01:51:36;11.20;99.90
66728;DHT22;53641;44.274;19.890;2022-10-30T01:54:15;11.30;99.90
66728;DHT22;53641;44.274;19.890;2022-10-30T01:57:02;11.30;99.90
66728;DHT22;53641;44.274;19.890;2022-10-30T01:59:40;11.30;99.90
66728;DHT22;53641;44.274;19.890;2022-10-30T02:02:08;11.30;99.90
66728;DHT22;53641;44.274;19.890;2022-10-30T02:04:34;11.30;99.90
66728;DHT22;53641;44.274;19.890;2022-10-30T02:07:00;11.30;99.90
66728;DHT22;53641;44.274;19.890;2022-10-30T02:09:26;11.30;99.90
66728;DHT22;53641;44.274;19.890;2022-10-30T02:11:53;11.30;99.90
66728;DHT22;53641;44.274;19.890;2022-10-30T02:14:23;11.20;99.90
66728;DHT22;53641;44.274;19.890;2022-10-30T02:16:50;11.30;99.90
66728;DHT22;53641;44.274;19.890;2022-10-30T02:19:18;11.20;99.90
66728;DHT22;53641;44.274;19.890;2022-10-30T02:21:43;11.20;99.90
66728;DHT22;53641;44.274;19.890;2022-10-30T02:24:09;11.20;99.90
66728;DHT22;53641;44.274;19.890;2022-10-30T02:26:35;11.10;99.90
66728;DHT22;53641;44.274;19.890;2022-10-30T02:29:01;11.10;99.90
66728;DHT22;53641;44.274;19.890;2022-10-30T02:31:27;11.10;99.90
66728;DHT22;53641;44.274;19.890;2022-10-30T02:33:53;11.10;99.90
66728;DHT22;53641;44.274;19.890;2022-10-30T02:36:19;11.10;99.90
66728;DHT22;53641;44.274;19.890;2022-10-30T02:38:44;11.00;99.90
66728;DHT22;53641;44.274;19.890;2022-10-30T02:41:10;11.10;99.90
66728;DHT22;53641;44.274;19.890;2022-10-30T02:43:36;11.10;99.90
66728;DHT22;53641;44.274;19.890;2022-10-30T02:46:02;11.10;99.90
66728;DHT22;53641;44.274;19.890;2022-10-30T02:48:29;11.10;99.90
66728;DHT22;53641;44.274;19.890;2022-10-30T02:50:58;11.10;99.90
66728;DHT22;53641;44.274;19.890;2022-10-30T02:53:24;11.10;99.90
66728;DHT22;53641;44.274;19.890;2022-10-30T02:55:53;11.00;99.90
66728;DHT22;53641;44.274;19.890;2022-10-30T02:58:19;11.10;99.90
66728;DHT22;53641;44.274;19.890;2022-10-30T03:00:44;11.00;99.90
66728;DHT22;53641;44.274;19.890;2022-10-30T03:03:10;11.00;99.90
66728;DHT22;53641;44.274;19.890;2022-10-30T03:05:36;11.00;99.90
66728;DHT22;53641;44.274;19.890;2022-10-30T03:08:02;11.00;99.90
66728;DHT22;53641;44.274;19.890;2022-10-30T03:10:27;11.00;99.90
66728;DHT22;53641;44.274;19.890;2022-10-30T03:12:53;11.00;99.90
66728;DHT22;53641;44.274;19.890;2022-10-30T03:15:19;11.00;99.90
66728;DHT22;53641;44.274;19.890;2022-10-30T03:17:45;11.00;99.90
66728;DHT22;53641;44.274;19.890;2022-10-30T03:20:11;10.90;99.90
66728;DHT22;53641;44.274;19.890;2022-10-30T03:22:37;10.90;99.90
66728;DHT22;53641;44.274;19.890;2022-10-30T03:25:03;10.90;99.90
66728;DHT22;53641;44.274;19.890;2022-10-30T03:27:29;10.80;99.90
66728;DHT22;53641;44.274;19.890;2022-10-30T03:29:55;10.80;99.90
66728;DHT22;53641;44.274;19.890;2022-10-30T03:32:21;10.80;99.90
66728;DHT22;53641;44.274;19.890;2022-10-30T03:34:47;10.80;99.90
66728;DHT22;53641;44.274;19.890;2022-10-30T03:37:13;10.80;99.90
66728;DHT22;53641;44.274;19.890;2022-10-30T03:39:38;10.80;99.90
66728;DHT22;53641;44.274;19.890;2022-10-30T03:42:04;10.90;99.90
66728;DHT22;53641;44.274;19.890;2022-10-30T03:44:30;10.90;99.90
66728;DHT22;53641;44.274;19.890;2022-10-30T03:46:56;10.90;99.90
66728;DHT22;53641;44.274;19.890;2022-10-30T03:49:22;10.90;99.90
66728;DHT22;53641;44.274;19.890;2022-10-30T03:51:48;10.90;99.90
66728;DHT22;53641;44.274;19.890;2022-10-30T03:54:14;10.80;99.90
66728;DHT22;53641;44.274;19.890;2022-10-30T03:56:40;10.80;99.90
66728;DHT22;53641;44.274;19.890;2022-10-30T03:59:05;10.90;99.90
66728;DHT22;53641;44.274;19.890;2022-10-30T04:01:31;10.80;99.90
66728;DHT22;53641;44.274;19.890;2022-10-30T04:03:57;10.80;99.90
66728;DHT22;53641;44.274;19.890;2022-10-30T04:06:41;10.80;99.90
66728;DHT22;53641;44.274;19.890;2022-10-30T04:09:07;10.80;99.90
66728;DHT22;53641;44.274;19.890;2022-10-30T04:11:33;10.80;99.90
66728;DHT22;53641;44.274;19.890;2022-10-30T04:13:58;10.90;99.90
66728;DHT22;53641;44.274;19.890;2022-10-30T04:16:24;10.80;99.90
66728;DHT22;53641;44.274;19.890;2022-10-30T04:18:50;10.80;99.90
66728;DHT22;53641;44.274;19.890;2022-10-30T04:21:16;10.80;99.90
66728;DHT22;53641;44.274;19.890;2022-10-30T04:23:42;10.80;99.90
66728;DHT22;53641;44.274;19.890;2022-10-30T04:26:07;10.80;99.90
66728;DHT22;53641;44.274;19.890;2022-10-30T04:28:33;10.70;99.90
66728;DHT22;53641;44.274;19.890;2022-10-30T04:30:59;10.80;99.90
66728;DHT22;53641;44.274;19.890;2022-10-30T04:33:25;10.80;99.90
66728;DHT22;53641;44.274;19.890;2022-10-30T04:35:51;10.70;99.90
66728;DHT22;53641;44.274;19.890;2022-10-30T04:38:16;10.80;99.90
66728;DHT22;53641;44.274;19.890;2022-10-30T04:40:44;10.70;99.90
66728;DHT22;53641;44.274;19.890;2022-10-30T04:43:10;10.70;99.90
66728;DHT22;53641;44.274;19.890;2022-10-30T04:45:37;10.70;99.90
66728;DHT22;53641;44.274;19.890;2022-10-30T04:48:05;10.70;99.90
66728;DHT22;53641;44.274;19.890;2022-10-30T04:50:32;10.80;99.90
66728;DHT22;53641;44.274;19.890;2022-10-30T04:53:00;10.80;99.90
66728;DHT22;53641;44.274;19.890;2022-10-30T04:55:26;10.70;99.90
66728;DHT22;53641;44.274;19.890;2022-10-30T04:57:54;10.70;99.90
66728;DHT22;53641;44.274;19.890;2022-10-30T05:00:20;10.70;99.90
66728;DHT22;53641;44.274;19.890;2022-10-30T05:02:48;10.70;99.90
66728;DHT22;53641;44.274;19.890;2022-10-30T05:05:14;10.70;99.90
66728;DHT22;53641;44.274;19.890;2022-10-30T05:07:40;10.60;99.90
66728;DHT22;53641;44.274;19.890;2022-10-30T05:10:06;10.60;99.90
66728;DHT22;53641;44.274;19.890;2022-10-30T05:12:32;10.70;99.90
66728;DHT22;53641;44.274;19.890;2022-10-30T05:14:58;10.60;99.90
66728;DHT22;53641;44.274;19.890;2022-10-30T05:17:26;10.70;99.90
66728;DHT22;53641;44.274;19.890;2022-10-30T05:19:52;10.60;99.90
66728;DHT22;53641;44.274;19.890;2022-10-30T05:22:18;10.60;99.90
66728;DHT22;53641;44.274;19.890;2022-10-30T05:24:44;10.70;99.90
66728;DHT22;53641;44.274;19.890;2022-10-30T05:27:13;10.70;99.90
66728;DHT22;53641;44.274;19.890;2022-10-30T05:29:39;10.70;99.90
66728;DHT22;53641;44.274;19.890;2022-10-30T05:32:05;10.70;99.90
66728;DHT22;53641;44.274;19.890;2022-10-30T05:34:34;10.80;99.90
66728;DHT22;53641;44.274;19.890;2022-10-30T05:37:00;10.80;99.90
66728;DHT22;53641;44.274;19.890;2022-10-30T05:39:26;10.80;99.90
66728;DHT22;53641;44.274;19.890;2022-10-30T05:41:52;10.80;99.90
66728;DHT22;53641;44.274;19.890;2022-10-30T05:44:18;10.80;99.90
66728;DHT22;53641;44.274;19.890;2022-10-30T05:46:44;10.90;99.90
66728;DHT22;53641;44.274;19.890;2022-10-30T05:49:10;11.00;99.90
66728;DHT22;53641;44.274;19.890;2022-10-30T05:51:36;11.00;99.90
66728;DHT22;53641;44.274;19.890;2022-10-30T05:54:01;11.10;99.90
66728;DHT22;53641;44.274;19.890;2022-10-30T05:56:27;11.10;99.90
66728;DHT22;53641;44.274;19.890;2022-10-30T05:58:53;11.20;99.90
66728;DHT22;53641;44.274;19.890;2022-10-30T06:01:19;11.30;99.90
66728;DHT22;53641;44.274;19.890;2022-10-30T06:03:45;11.30;99.90
66728;DHT22;53641;44.274;19.890;2022-10-30T06:06:11;11.30;99.90
66728;DHT22;53641;44.274;19.890;2022-10-30T06:08:37;11.30;99.90
66728;DHT22;53641;44.274;19.890;2022-10-30T06:11:03;11.40;99.90
66728;DHT22;53641;44.274;19.890;2022-10-30T06:13:28;11.50;99.90
66728;DHT22;53641;44.274;19.890;2022-10-30T06:15:54;11.50;99.90
66728;DHT22;53641;44.274;19.890;2022-10-30T06:18:24;11.60;99.90
66728;DHT22;53641;44.274;19.890;2022-10-30T06:20:50;11.70;99.90
66728;DHT22;53641;44.274;19.890;2022-10-30T06:23:16;11.80;99.90
66728;DHT22;53641;44.274;19.890;2022-10-30T06:25:41;11.80;99.90
66728;DHT22;53641;44.274;19.890;2022-10-30T06:28:09;11.90;99.90
66728;DHT22;53641;44.274;19.890;2022-10-30T06:30:35;12.00;99.90
66728;DHT22;53641;44.274;19.890;2022-10-30T06:33:05;12.20;99.90
66728;DHT22;53641;44.274;19.890;2022-10-30T06:35:31;12.40;99.90
66728;DHT22;53641;44.274;19.890;2022-10-30T06:37:57;12.60;99.90
66728;DHT22;53641;44.274;19.890;2022-10-30T06:40:27;13.00;99.90
66728;DHT22;53641;44.274;19.890;2022-10-30T06:42:56;13.20;99.90
66728;DHT22;53641;44.274;19.890;2022-10-30T06:45:23;13.40;99.90
66728;DHT22;53641;44.274;19.890;2022-10-30T06:47:49;13.70;99.90
66728;DHT22;53641;44.274;19.890;2022-10-30T06:50:21;13.90;99.90
66728;DHT22;53641;44.274;19.890;2022-10-30T06:52:48;14.10;99.90
66728;DHT22;53641;44.274;19.890;2022-10-30T06:55:17;14.20;99.90
66728;DHT22;53641;44.274;19.890;2022-10-30T06:57:45;14.20;99.90
66728;DHT22;53641;44.274;19.890;2022-10-30T07:00:17;14.30;99.90
66728;DHT22;53641;44.274;19.890;2022-10-30T07:03:00;14.10;99.90
66728;DHT22;53641;44.274;19.890;2022-10-30T07:05:29;14.00;99.90
66728;DHT22;53641;44.274;19.890;2022-10-30T07:07:57;14.00;99.90
66728;DHT22;53641;44.274;19.890;2022-10-30T07:10:26;13.90;99.90
66728;DHT22;53641;44.274;19.890;2022-10-30T07:13:06;14.10;99.90
66728;DHT22;53641;44.274;19.890;2022-10-30T07:15:58;14.60;99.90
66728;DHT22;53641;44.274;19.890;2022-10-30T07:19:12;15.00;99.90
66728;DHT22;53641;44.274;19.890;2022-10-30T07:21:48;14.90;99.90
66728;DHT22;53641;44.274;19.890;2022-10-30T07:24:14;14.80;99.90
66728;DHT22;53641;44.274;19.890;2022-10-30T07:26:59;14.50;99.90
66728;DHT22;53641;44.274;19.890;2022-10-30T07:29:34;14.50;99.90
66728;DHT22;53641;44.274;19.890;2022-10-30T07:32:14;14.20;99.90
66728;DHT22;53641;44.274;19.890;2022-10-30T07:37:35;14.20;99.90
66728;DHT22;53641;44.274;19.890;2022-10-30T07:40:11;14.30;99.90
66728;DHT22;53641;44.274;19.890;2022-10-30T07:42:37;14.50;99.90
66728;DHT22;53641;44.274;19.890;2022-10-30T07:45:03;14.70;99.90
66728;DHT22;53641;44.274;19.890;2022-10-30T07:47:40;14.70;99.90
66728;DHT22;53641;44.274;19.890;2022-10-30T07:50:07;14.90;99.90
66728;DHT22;53641;44.274;19.890;2022-10-30T07:52:38;15.20;99.90
66728;DHT22;53641;44.274;19.890;2022-10-30T07:55:05;15.60;99.90
66728;DHT22;53641;44.274;19.890;2022-10-30T07:57:35;16.10;99.90
66728;DHT22;53641;44.274;19.890;2022-10-30T08:00:17;16.70;99.90
66728;DHT22;53641;44.274;19.890;2022-10-30T08:03:18;17.30;99.90
66728;DHT22;53641;44.274;19.890;2022-10-30T08:05:52;17.90;99.90
66728;DHT22;53641;44.274;19.890;2022-10-30T08:08:55;18.20;99.30
66728;DHT22;53641;44.274;19.890;2022-10-30T08:11:56;18.60;98.90
66728;DHT22;53641;44.274;19.890;2022-10-30T08:14:51;19.00;98.20
66728;DHT22;53641;44.274;19.890;2022-10-30T08:23:39;19.00;96.90
66728;DHT22;53641;44.274;19.890;2022-10-30T08:27:23;19.10;96.50
66728;DHT22;53641;44.274;19.890;2022-10-30T08:29:49;19.40;96.40
66728;DHT22;53641;44.274;19.890;2022-10-30T08:32:28;19.80;95.50
66728;DHT22;53641;44.274;19.890;2022-10-30T08:35:24;20.00;95.10
66728;DHT22;53641;44.274;19.890;2022-10-30T08:45:16;20.10;93.50
66728;DHT22;53641;44.274;19.890;2022-10-30T08:48:05;20.00;93.30
66728;DHT22;53641;44.274;19.890;2022-10-30T08:50:47;19.80;94.20
66728;DHT22;53641;44.274;19.890;2022-10-30T08:53:24;19.80;94.30
66728;DHT22;53641;44.274;19.890;2022-10-30T08:56:33;19.80;94.20
66728;DHT22;53641;44.274;19.890;2022-10-30T08:59:06;19.80;94.40
66728;DHT22;53641;44.274;19.890;2022-10-30T09:06:33;20.20;94.00
66728;DHT22;53641;44.274;19.890;2022-10-30T09:09:02;20.00;94.30
66728;DHT22;53641;44.274;19.890;2022-10-30T09:11:31;20.10;94.60
66728;DHT22;53641;44.274;19.890;2022-10-30T09:17:41;20.20;93.80
66728;DHT22;53641;44.274;19.890;2022-10-30T09:20:35;20.20;93.70
66728;DHT22;53641;44.274;19.890;2022-10-30T09:23:22;20.10;93.80
66728;DHT22;53641;44.274;19.890;2022-10-30T09:26:05;20.00;93.70
66728;DHT22;53641;44.274;19.890;2022-10-30T09:32:21;19.60;94.60
66728;DHT22;53641;44.274;19.890;2022-10-30T09:38:56;19.10;95.60
66728;DHT22;53641;44.274;19.890;2022-10-30T09:46:32;18.80;96.50
66728;DHT22;53641;44.274;19.890;2022-10-30T09:49:52;18.90;97.20
66728;DHT22;53641;44.274;19.890;2022-10-30T09:52:35;19.00;96.80
66728;DHT22;53641;44.274;19.890;2022-10-30T09:56:02;19.10;97.10
66728;DHT22;53641;44.274;19.890;2022-10-30T10:00:01;19.10;96.90
66728;DHT22;53641;44.274;19.890;2022-10-30T10:11:58;19.90;93.20
66728;DHT22;53641;44.274;19.890;2022-10-30T10:14:49;20.10;91.90
66728;DHT22;53641;44.274;19.890;2022-10-30T10:28:28;20.10;92.80
66728;DHT22;53641;44.274;19.890;2022-10-30T10:59:46;19.20;96.60
66728;DHT22;53641;44.274;19.890;2022-10-30T11:02:53;19.40;96.80
66728;DHT22;53641;44.274;19.890;2022-10-30T11:05:51;19.40;97.00
66728;DHT22;53641;44.274;19.890;2022-10-30T11:09:19;19.40;97.60
66728;DHT22;53641;44.274;19.890;2022-10-30T11:12:28;19.40;98.20
66728;DHT22;53641;44.274;19.890;2022-10-30T11:15:41;19.30;98.10
66728;DHT22;53641;44.274;19.890;2022-10-30T11:21:51;19.50;98.60
66728;DHT22;53641;44.274;19.890;2022-10-30T11:24:39;19.60;98.40
66728;DHT22;53641;44.274;19.890;2022-10-30T11:27:58;19.60;98.30
66728;DHT22;53641;44.274;19.890;2022-10-30T11:31:24;19.60;98.30
66728;DHT22;53641;44.274;19.890;2022-10-30T11:35:11;19.70;98.20
66728;DHT22;53641;44.274;19.890;2022-10-30T11:38:11;19.80;98.40
66728;DHT22;53641;44.274;19.890;2022-10-30T11:40:50;19.80;98.40
66728;DHT22;53641;44.274;19.890;2022-10-30T11:43:20;19.90;97.80
66728;DHT22;53641;44.274;19.890;2022-10-30T11:45:53;20.10;97.90
66728;DHT22;53641;44.274;19.890;2022-10-30T11:48:27;20.20;97.60
66728;DHT22;53641;44.274;19.890;2022-10-30T11:51:10;20.20;97.10
66728;DHT22;53641;44.274;19.890;2022-10-30T11:53:48;20.30;96.90
66728;DHT22;53641;44.274;19.890;2022-10-30T11:56:17;20.40;97.40
66728;DHT22;53641;44.274;19.890;2022-10-30T11:58:55;20.50;97.00
66728;DHT22;53641;44.274;19.890;2022-10-30T12:04:29;20.70;96.90
66728;DHT22;53641;44.274;19.890;2022-10-30T12:07:32;20.70;96.00
66728;DHT22;53641;44.274;19.890;2022-10-30T12:09:59;20.70;95.70
66728;DHT22;53641;44.274;19.890;2022-10-30T12:12:32;20.70;95.60
66728;DHT22;53641;44.274;19.890;2022-10-30T12:15:23;20.70;95.70
66728;DHT22;53641;44.274;19.890;2022-10-30T12:18:00;20.70;96.00
66728;DHT22;53641;44.274;19.890;2022-10-30T12:21:09;20.70;95.30
66728;DHT22;53641;44.274;19.890;2022-10-30T12:24:00;20.70;95.10
66728;DHT22;53641;44.274;19.890;2022-10-30T12:26:32;20.80;95.40
66728;DHT22;53641;44.274;19.890;2022-10-30T12:29:20;20.80;95.20
66728;DHT22;53641;44.274;19.890;2022-10-30T12:32:14;20.80;95.60
66728;DHT22;53641;44.274;19.890;2022-10-30T12:35:01;20.80;95.70
66728;DHT22;53641;44.274;19.890;2022-10-30T12:38:02;20.80;95.40
66728;DHT22;53641;44.274;19.890;2022-10-30T12:41:22;20.90;95.40
66728;DHT22;53641;44.274;19.890;2022-10-30T12:47:47;20.90;95.30
66728;DHT22;53641;44.274;19.890;2022-10-30T12:54:44;21.00;95.70
66728;DHT22;53641;44.274;19.890;2022-10-30T13:00:55;21.00;95.70
66728;DHT22;53641;44.274;19.890;2022-10-30T13:03:49;21.10;95.70
66728;DHT22;53641;44.274;19.890;2022-10-30T13:10:20;21.10;95.70
66728;DHT22;53641;44.274;19.890;2022-10-30T13:16:27;21.10;94.90
66728;DHT22;53641;44.274;19.890;2022-10-30T13:19:17;21.20;95.00
66728;DHT22;53641;44.274;19.890;2022-10-30T13:29:44;21.10;94.80
66728;DHT22;53641;44.274;19.890;2022-10-30T13:33:10;21.00;94.70
66728;DHT22;53641;44.274;19.890;2022-10-30T13:36:30;21.00;94.70
66728;DHT22;53641;44.274;19.890;2022-10-30T13:43:20;21.10;94.70
66728;DHT22;53641;44.274;19.890;2022-10-30T13:46:46;21.10;94.90
66728;DHT22;53641;44.274;19.890;2022-10-30T13:56:43;21.10;94.80
66728;DHT22;53641;44.274;19.890;2022-10-30T14:03:36;21.00;94.90
66728;DHT22;53641;44.274;19.890;2022-10-30T14:06:34;21.00;94.80
66728;DHT22;53641;44.274;19.890;2022-10-30T14:09:32;21.00;95.00
66728;DHT22;53641;44.274;19.890;2022-10-30T14:13:02;21.00;95.00
66728;DHT22;53641;44.274;19.890;2022-10-30T14:15:56;21.00;95.40
66728;DHT22;53641;44.274;19.890;2022-10-30T14:22:34;20.90;95.20
66728;DHT22;53641;44.274;19.890;2022-10-30T14:25:23;21.00;95.30
66728;DHT22;53641;44.274;19.890;2022-10-30T14:28:45;20.90;95.50
66728;DHT22;53641;44.274;19.890;2022-10-30T14:35:23;20.80;95.60
66728;DHT22;53641;44.274;19.890;2022-10-30T14:45:24;20.60;96.40
66728;DHT22;53641;44.274;19.890;2022-10-30T14:48:44;20.50;96.40
66728;DHT22;53641;44.274;19.890;2022-10-30T14:51:50;20.50;96.60
66728;DHT22;53641;44.274;19.890;2022-10-30T14:55:25;20.40;96.50
66728;DHT22;53641;44.274;19.890;2022-10-30T14:58:15;20.40;96.70
66728;DHT22;53641;44.274;19.890;2022-10-30T15:14:50;19.80;97.70
66728;DHT22;53641;44.274;19.890;2022-10-30T15:21:02;19.70;98.30
66728;DHT22;53641;44.274;19.890;2022-10-30T15:24:25;19.60;98.60
66728;DHT22;53641;44.274;19.890;2022-10-30T15:27:38;19.40;99.00
66728;DHT22;53641;44.274;19.890;2022-10-30T15:37:12;19.10;99.80
66728;DHT22;53641;44.274;19.890;2022-10-30T15:40:19;18.90;99.90
66728;DHT22;53641;44.274;19.890;2022-10-30T15:46:45;18.70;99.90
66728;DHT22;53641;44.274;19.890;2022-10-30T15:49:57;18.60;99.90
66728;DHT22;53641;44.274;19.890;2022-10-30T15:56:36;18.40;99.90
66728;DHT22;53641;44.274;19.890;2022-10-30T16:02:31;18.20;99.90
66728;DHT22;53641;44.274;19.890;2022-10-30T16:05:38;18.10;99.90
66728;DHT22;53641;44.274;19.890;2022-10-30T16:08:41;18.00;99.90
66728;DHT22;53641;44.274;19.890;2022-10-30T16:14:33;17.80;99.90
66728;DHT22;53641;44.274;19.890;2022-10-30T16:17:09;17.80;99.90
66728;DHT22;53641;44.274;19.890;2022-10-30T16:20:08;17.70;99.90
66728;DHT22;53641;44.274;19.890;2022-10-30T16:26:08;17.60;99.90
66728;DHT22;53641;44.274;19.890;2022-10-30T16:29:36;17.60;99.90
66728;DHT22;53641;44.274;19.890;2022-10-30T16:32:27;17.50;99.90
66728;DHT22;53641;44.274;19.890;2022-10-30T16:35:25;17.40;99.90
66728;DHT22;53641;44.274;19.890;2022-10-30T16:38:36;17.40;99.90
66728;DHT22;53641;44.274;19.890;2022-10-30T16:41:45;17.30;99.90
66728;DHT22;53641;44.274;19.890;2022-10-30T16:44:26;17.20;99.90
66728;DHT22;53641;44.274;19.890;2022-10-30T16:47:22;17.20;99.90
66728;DHT22;53641;44.274;19.890;2022-10-30T16:50:03;17.10;99.90
66728;DHT22;53641;44.274;19.890;2022-10-30T16:52:43;17.10;99.90
66728;DHT22;53641;44.274;19.890;2022-10-30T16:58:24;16.90;99.90
66728;DHT22;53641;44.274;19.890;2022-10-30T17:01:29;16.90;99.90
66728;DHT22;53641;44.274;19.890;2022-10-30T17:04:14;16.80;99.90
66728;DHT22;53641;44.274;19.890;2022-10-30T17:10:42;16.70;99.90
66728;DHT22;53641;44.274;19.890;2022-10-30T17:13:55;16.70;99.90
66728;DHT22;53641;44.274;19.890;2022-10-30T17:16:51;16.60;99.90
66728;DHT22;53641;44.274;19.890;2022-10-30T17:19:59;16.50;99.90
66728;DHT22;53641;44.274;19.890;2022-10-30T17:23:11;16.50;99.90
66728;DHT22;53641;44.274;19.890;2022-10-30T17:26:17;16.40;99.90
66728;DHT22;53641;44.274;19.890;2022-10-30T17:28:47;16.30;99.90
66728;DHT22;53641;44.274;19.890;2022-10-30T17:35:16;16.30;99.90
66728;DHT22;53641;44.274;19.890;2022-10-30T17:37:49;16.20;99.90
66728;DHT22;53641;44.274;19.890;2022-10-30T17:40:41;16.20;99.90
66728;DHT22;53641;44.274;19.890;2022-10-30T17:43:32;16.20;99.90
66728;DHT22;53641;44.274;19.890;2022-10-30T17:46:32;16.10;99.90
66728;DHT22;53641;44.274;19.890;2022-10-30T17:52:07;16.00;99.90
66728;DHT22;53641;44.274;19.890;2022-10-30T17:55:01;16.00;99.90
66728;DHT22;53641;44.274;19.890;2022-10-30T18:01:24;15.90;99.90
66728;DHT22;53641;44.274;19.890;2022-10-30T18:07:27;15.70;99.90
66728;DHT22;53641;44.274;19.890;2022-10-30T18:10:13;15.70;99.90
66728;DHT22;53641;44.274;19.890;2022-10-30T18:13:04;15.50;99.90
66728;DHT22;53641;44.274;19.890;2022-10-30T18:15:42;15.60;99.90
66728;DHT22;53641;44.274;19.890;2022-10-30T18:18:33;15.60;99.90
66728;DHT22;53641;44.274;19.890;2022-10-30T18:21:22;15.50;99.90
66728;DHT22;53641;44.274;19.890;2022-10-30T18:24:32;15.50;99.90
66728;DHT22;53641;44.274;19.890;2022-10-30T18:27:05;15.50;99.90
66728;DHT22;53641;44.274;19.890;2022-10-30T18:29:46;15.50;99.90
66728;DHT22;53641;44.274;19.890;2022-10-30T18:32:32;15.40;99.90
66728;DHT22;53641;44.274;19.890;2022-10-30T18:35:35;15.40;99.90
66728;DHT22;53641;44.274;19.890;2022-10-30T18:38:34;15.40;99.90
66728;DHT22;53641;44.274;19.890;2022-10-30T18:41:33;15.40;99.90
66728;DHT22;53641;44.274;19.890;2022-10-30T18:44:34;15.30;99.90
66728;DHT22;53641;44.274;19.890;2022-10-30T18:47:32;15.30;99.90
66728;DHT22;53641;44.274;19.890;2022-10-30T18:53:18;15.30;99.90
66728;DHT22;53641;44.274;19.890;2022-10-30T18:55:52;15.20;99.90
66728;DHT22;53641;44.274;19.890;2022-10-30T18:58:26;15.20;99.90
66728;DHT22;53641;44.274;19.890;2022-10-30T19:01:07;15.10;99.90
66728;DHT22;53641;44.274;19.890;2022-10-30T19:06:41;15.00;99.90
66728;DHT22;53641;44.274;19.890;2022-10-30T19:09:11;15.10;99.90
66728;DHT22;53641;44.274;19.890;2022-10-30T19:12:01;15.10;99.90
66728;DHT22;53641;44.274;19.890;2022-10-30T19:14:38;15.00;99.90
66728;DHT22;53641;44.274;19.890;2022-10-30T19:17:28;15.00;99.90
66728;DHT22;53641;44.274;19.890;2022-10-30T19:20:35;14.90;99.90
66728;DHT22;53641;44.274;19.890;2022-10-30T19:23:38;14.90;99.90
66728;DHT22;53641;44.274;19.890;2022-10-30T19:26:09;14.90;99.90
66728;DHT22;53641;44.274;19.890;2022-10-30T19:28:43;14.90;99.90
66728;DHT22;53641;44.274;19.890;2022-10-30T19:31:21;14.90;99.90
66728;DHT22;53641;44.274;19.890;2022-10-30T19:33:50;14.80;99.90
66728;DHT22;53641;44.274;19.890;2022-10-30T19:36:44;14.70;99.90
66728;DHT22;53641;44.274;19.890;2022-10-30T19:39:34;14.70;99.90
66728;DHT22;53641;44.274;19.890;2022-10-30T19:42:26;14.70;99.90
66728;DHT22;53641;44.274;19.890;2022-10-30T19:44:57;14.70;99.90
66728;DHT22;53641;44.274;19.890;2022-10-30T19:47:42;14.60;99.90
66728;DHT22;53641;44.274;19.890;2022-10-30T19:50:46;14.60;99.90
66728;DHT22;53641;44.274;19.890;2022-10-30T19:53:54;14.60;99.90
66728;DHT22;53641;44.274;19.890;2022-10-30T19:56:59;14.60;99.90
66728;DHT22;53641;44.274;19.890;2022-10-30T19:59:39;14.60;99.90
66728;DHT22;53641;44.274;19.890;2022-10-30T20:02:17;14.50;99.90
66728;DHT22;53641;44.274;19.890;2022-10-30T20:04:49;14.50;99.90
66728;DHT22;53641;44.274;19.890;2022-10-30T20:07:19;14.50;99.90
66728;DHT22;53641;44.274;19.890;2022-10-30T20:12:42;14.50;99.90
66728;DHT22;53641;44.274;19.890;2022-10-30T20:15:51;14.50;99.90